createdAt,value
2022-09-23T00:00:11.517Z,3.38
2022-09-23T00:00:44.603Z,4.18
2022-09-23T00:01:16.631Z,3.72
2022-09-23T00:01:48.913Z,3.78
2022-09-23T00:02:20.841Z,3.92
2022-09-23T00:02:52.802Z,3.45
2022-09-23T00:03:24.874Z,4.15
2022-09-23T00:03:59.107Z,3.83
2022-09-23T00:04:31.186Z,3.60
2022-09-23T00:05:03.285Z,3.35
2022-09-23T00:05:35.666Z,3.50
2022-09-23T00:06:13.624Z,3.88
2022-09-23T00:06:45.717Z,4.50
2022-09-23T00:07:17.978Z,3.42
2022-09-23T00:07:49.792Z,3.75
2022-09-23T00:08:22.807Z,3.90
2022-09-23T00:08:55.005Z,3.55
2022-09-23T00:09:27.797Z,3.30
2022-09-23T00:09:59.721Z,3.78
2022-09-23T00:10:31.932Z,3.67
2022-09-23T00:11:06.484Z,3.95
2022-09-23T00:11:38.469Z,4.00
2022-09-23T00:12:10.368Z,4.05
2022-09-23T00:12:42.310Z,3.85
2022-09-23T00:13:14.113Z,3.78
2022-09-23T00:13:48.918Z,3.83
2022-09-23T00:14:21.690Z,4.13
2022-09-23T00:14:53.557Z,4.10
2022-09-23T00:15:26.603Z,3.90
2022-09-23T00:16:02.848Z,4.00
2022-09-23T00:16:35.267Z,3.97
2022-09-23T00:17:07.324Z,3.33
2022-09-23T00:17:40.623Z,3.80
2022-09-23T00:18:12.470Z,2.60
2022-09-23T00:18:44.487Z,3.80
2022-09-23T00:19:16.352Z,2.63
2022-09-23T00:19:48.369Z,3.85
2022-09-23T00:20:20.385Z,4.10
2022-09-23T00:20:53.044Z,3.92
2022-09-23T00:21:25.260Z,3.80
2022-09-23T00:21:57.230Z,3.53
2022-09-23T00:22:29.107Z,3.60
2022-09-23T00:23:01.440Z,2.92
2022-09-23T00:23:33.288Z,4.45
2022-09-23T00:24:05.352Z,3.65
2022-09-23T00:24:37.510Z,3.63
2022-09-23T00:25:11.222Z,3.70
2022-09-23T00:25:42.991Z,4.07
2022-09-23T00:26:16.739Z,3.67
2022-09-23T00:26:48.970Z,3.80
2022-09-23T00:27:21.557Z,4.50
2022-09-23T00:27:54.175Z,4.32
2022-09-23T00:28:26.189Z,3.83
2022-09-23T00:28:58.427Z,3.80
2022-09-23T00:29:31.500Z,4.05
2022-09-23T00:30:08.790Z,3.85
2022-09-23T00:30:42.012Z,4.65
2022-09-23T00:31:20.030Z,3.75
2022-09-23T00:31:51.900Z,3.53
2022-09-23T00:32:23.766Z,3.95
2022-09-23T00:32:56.938Z,3.97
2022-09-23T00:33:29.869Z,3.65
2022-09-23T00:34:01.999Z,3.33
2022-09-23T00:34:33.991Z,4.05
2022-09-23T00:35:06.360Z,3.53
2022-09-23T00:35:38.709Z,3.38
2022-09-23T00:36:15.653Z,2.90
2022-09-23T00:36:47.539Z,4.18
2022-09-23T00:37:20.079Z,3.70
2022-09-23T00:37:52.272Z,4.28
2022-09-23T00:38:24.184Z,3.88
2022-09-23T00:39:14.470Z,3.17
2022-09-23T00:39:46.684Z,3.95
2022-09-23T00:40:18.813Z,2.90
2022-09-23T00:40:51.227Z,4.20
2022-09-23T00:41:23.556Z,4.22
2022-09-23T00:41:56.135Z,4.38
2022-09-23T00:42:27.988Z,4.20
2022-09-23T00:43:00.185Z,4.35
2022-09-23T00:43:48.909Z,4.47
2022-09-23T00:44:50.110Z,2.88
2022-09-23T00:45:22.351Z,4.50
2022-09-23T00:45:54.976Z,3.15
2022-09-23T00:46:36.958Z,3.83
2022-09-23T00:47:44.128Z,4.00
2022-09-23T00:48:20.475Z,3.65
2022-09-23T00:49:00.233Z,4.20
2022-09-23T00:49:32.131Z,4.30
2022-09-23T00:50:15.051Z,4.30
2022-09-23T00:50:54.263Z,3.85
2022-09-23T00:51:33.575Z,3.13
2022-09-23T00:52:14.569Z,4.28
2022-09-23T00:52:49.164Z,4.38
2022-09-23T00:53:26.585Z,3.55
2022-09-23T00:53:58.857Z,4.07
2022-09-23T00:54:31.101Z,4.38
2022-09-23T00:55:07.650Z,4.05
2022-09-23T00:55:46.062Z,4.32
2022-09-23T00:56:20.165Z,4.25
2022-09-23T00:56:52.255Z,5.43
2022-09-23T00:57:26.137Z,4.32
2022-09-23T00:58:01.224Z,3.67
2022-09-23T00:58:36.150Z,4.53
2022-09-23T00:59:10.782Z,4.60
2022-09-23T00:59:44.250Z,4.57
2022-09-23T01:00:16.194Z,3.08
2022-09-23T01:00:48.125Z,4.50
2022-09-23T01:01:21.449Z,4.43
2022-09-23T01:01:56.172Z,4.40
2022-09-23T01:02:28.401Z,4.68
2022-09-23T01:03:01.755Z,4.13
2022-09-23T01:03:34.312Z,4.72
2022-09-23T01:04:07.946Z,4.57
2022-09-23T01:04:40.751Z,4.57
2022-09-23T01:05:13.813Z,3.65
2022-09-23T01:05:47.148Z,4.72
2022-09-23T01:06:19.218Z,4.28
2022-09-23T01:06:51.353Z,2.90
2022-09-23T01:07:23.354Z,4.63
2022-09-23T01:07:57.582Z,4.97
2022-09-23T01:08:29.677Z,4.43
2022-09-23T01:09:01.856Z,5.03
2022-09-23T01:09:34.283Z,4.50
2022-09-23T01:10:08.040Z,4.78
2022-09-23T01:10:52.091Z,3.67
2022-09-23T01:11:47.374Z,3.45
2022-09-23T01:12:34.191Z,5.07
2022-09-23T01:13:15.413Z,4.38
2022-09-23T01:13:47.364Z,5.30
2022-09-23T01:14:37.528Z,4.60
2022-09-23T01:15:32.521Z,3.20
2022-09-23T01:16:23.408Z,4.28
2022-09-23T01:18:08.358Z,3.63
2022-09-23T01:19:09.418Z,4.28
2022-09-23T01:20:15.442Z,3.60
2022-09-23T01:21:16.738Z,5.00
2022-09-23T01:23:00.115Z,3.47
2022-09-23T01:23:41.469Z,4.82
2022-09-23T01:24:30.257Z,5.55
2022-09-23T01:25:23.372Z,4.82
2022-09-23T01:26:08.106Z,3.85
2022-09-23T01:27:01.002Z,4.68
2022-09-23T01:28:07.946Z,3.58
2022-09-23T01:29:09.280Z,3.55
2022-09-23T01:29:59.817Z,3.33
2022-09-23T01:30:37.849Z,5.32
2022-09-23T01:31:22.572Z,5.47
2022-09-23T01:32:16.149Z,5.32
2022-09-23T01:33:11.178Z,5.32
2022-09-23T01:33:56.640Z,4.43
2022-09-23T01:34:31.440Z,5.05
2022-09-23T01:35:38.592Z,3.88
2022-09-23T01:36:27.170Z,4.60
2022-09-23T01:37:20.872Z,2.88
2022-09-23T01:38:17.124Z,4.65
2022-09-23T01:39:07.922Z,5.82
2022-09-23T01:39:52.067Z,3.80
2022-09-23T01:40:40.262Z,4.38
2022-09-23T01:41:31.491Z,5.53
2022-09-23T01:42:17.438Z,4.95
2022-09-23T01:43:15.665Z,3.47
2022-09-23T01:44:04.143Z,5.38
2022-09-23T01:44:49.875Z,5.18
2022-09-23T01:45:37.485Z,4.03
2022-09-23T01:46:18.513Z,5.40
2022-09-23T01:47:17.525Z,5.10
2022-09-23T01:48:10.513Z,5.70
2022-09-23T01:48:47.264Z,5.35
2022-09-23T01:49:30.903Z,5.53
2022-09-23T01:50:26.908Z,6.70
2022-09-23T01:51:20.765Z,5.35
2022-09-23T01:51:59.863Z,5.82
2022-09-23T01:52:41.886Z,6.30
2022-09-23T01:53:24.103Z,6.15
2022-09-23T01:54:15.963Z,5.75
2022-09-23T01:55:27.150Z,4.00
2022-09-23T01:56:05.289Z,4.68
2022-09-23T01:56:47.538Z,3.95
2022-09-23T01:57:26.533Z,4.35
2022-09-23T01:58:23.595Z,5.72
2022-09-23T01:58:55.452Z,5.65
2022-09-23T01:59:47.137Z,5.80
2022-09-23T02:00:24.156Z,4.50
2022-09-23T02:01:07.724Z,6.18
2022-09-23T02:01:45.336Z,5.35
2022-09-23T02:02:44.298Z,5.55
2022-09-23T02:03:33.111Z,4.25
2022-09-23T02:04:15.447Z,5.88
2022-09-23T02:05:00.562Z,4.32
2022-09-23T02:05:45.005Z,5.18
2022-09-23T02:06:24.765Z,6.00
2022-09-23T02:07:06.158Z,4.20
2022-09-23T02:07:55.614Z,5.03
2022-09-23T02:08:30.755Z,5.22
2022-09-23T02:09:08.140Z,5.43
2022-09-23T02:09:43.986Z,5.32
2022-09-23T02:10:24.131Z,4.63
2022-09-23T02:11:04.597Z,3.42
2022-09-23T02:11:37.827Z,4.97
2022-09-23T02:12:17.296Z,5.30
2022-09-23T02:12:52.746Z,5.47
2022-09-23T02:13:43.135Z,4.82
2022-09-23T02:14:38.816Z,4.72
2022-09-23T02:15:16.389Z,3.83
2022-09-23T02:15:55.671Z,4.10
2022-09-23T02:16:39.528Z,4.75
2022-09-23T02:17:17.257Z,4.82
2022-09-23T02:17:59.169Z,4.22
2022-09-23T02:19:00.140Z,5.25
2022-09-23T02:19:45.794Z,3.28
2022-09-23T02:20:24.348Z,4.18
2022-09-23T02:21:02.714Z,5.57
2022-09-23T02:21:38.405Z,5.18
2022-09-23T02:22:22.723Z,5.35
2022-09-23T02:23:01.456Z,5.82
2022-09-23T02:23:40.125Z,5.95
2022-09-23T02:24:28.003Z,5.15
2022-09-23T02:25:00.056Z,4.05
2022-09-23T02:25:47.721Z,3.63
2022-09-23T02:26:27.743Z,4.90
2022-09-23T02:27:22.165Z,5.45
2022-09-23T02:27:57.161Z,4.85
2022-09-23T02:28:41.184Z,5.88
2022-09-23T02:29:26.966Z,5.70
2022-09-23T02:30:13.481Z,4.07
2022-09-23T02:30:56.250Z,5.20
2022-09-23T02:31:30.827Z,4.78
2022-09-23T02:32:23.772Z,5.93
2022-09-23T02:33:08.594Z,3.60
2022-09-23T02:33:53.330Z,5.03
2022-09-23T02:34:43.000Z,5.28
2022-09-23T02:35:32.868Z,3.70
2022-09-23T02:36:20.628Z,5.10
2022-09-23T02:37:21.002Z,3.58
2022-09-23T02:38:09.862Z,5.38
2022-09-23T02:38:51.155Z,3.70
2022-09-23T02:39:28.627Z,4.45
2022-09-23T02:40:12.704Z,4.55
2022-09-23T02:40:58.842Z,4.90
2022-09-23T02:41:39.082Z,3.75
2022-09-23T02:42:20.289Z,4.90
2022-09-23T02:43:33.868Z,4.43
2022-09-23T02:44:18.546Z,3.85
2022-09-23T02:44:50.753Z,5.25
2022-09-23T02:45:22.786Z,5.40
2022-09-23T02:45:56.214Z,5.28
2022-09-23T02:46:30.082Z,5.38
2022-09-23T02:47:02.341Z,5.38
2022-09-23T02:47:39.671Z,5.53
2022-09-23T02:48:21.338Z,5.45
2022-09-23T02:49:24.006Z,5.30
2022-09-23T02:49:58.283Z,4.22
2022-09-23T02:50:31.580Z,4.82
2022-09-23T02:51:04.496Z,5.22
2022-09-23T02:51:38.198Z,4.28
2022-09-23T02:52:13.675Z,4.65
2022-09-23T02:52:46.939Z,4.35
2022-09-23T02:53:19.067Z,5.25
2022-09-23T02:53:52.164Z,3.92
2022-09-23T02:54:29.375Z,5.50
2022-09-23T02:55:01.378Z,4.60
2022-09-23T02:55:33.546Z,5.47
2022-09-23T02:56:21.044Z,4.80
2022-09-23T02:56:53.309Z,5.78
2022-09-23T02:57:25.511Z,5.15
2022-09-23T02:58:01.053Z,5.35
2022-09-23T02:58:34.373Z,5.65
2022-09-23T02:59:08.926Z,3.60
2022-09-23T02:59:41.537Z,4.82
2022-09-23T03:00:14.013Z,5.43
2022-09-23T03:01:21.741Z,5.72
2022-09-23T03:02:04.569Z,3.88
2022-09-23T03:02:36.449Z,3.25
2022-09-23T03:03:20.571Z,5.22
2022-09-23T03:04:31.535Z,5.25
2022-09-23T03:05:31.529Z,4.13
2022-09-23T03:06:25.959Z,5.40
2022-09-23T03:07:19.168Z,3.20
2022-09-23T03:08:12.946Z,3.78
2022-09-23T03:09:02.285Z,4.68
2022-09-23T03:09:40.374Z,3.85
2022-09-23T03:10:22.597Z,5.70
2022-09-23T03:11:10.588Z,5.43
2022-09-23T03:11:50.954Z,4.47
2022-09-23T03:12:38.998Z,4.75
2022-09-23T03:13:17.123Z,5.80
2022-09-23T03:14:16.941Z,4.63
2022-09-23T03:14:54.489Z,5.18
2022-09-23T03:15:38.717Z,5.10
2022-09-23T03:16:13.326Z,3.90
2022-09-23T03:16:58.259Z,5.00
2022-09-23T03:17:54.934Z,5.05
2022-09-23T03:18:45.393Z,5.07
2022-09-23T03:19:33.858Z,3.05
2022-09-23T03:20:22.425Z,3.78
2022-09-23T03:21:33.873Z,4.82
2022-09-23T03:22:07.537Z,4.13
2022-09-23T03:22:49.563Z,3.95
2022-09-23T03:23:26.295Z,5.10
2022-09-23T03:24:07.385Z,4.88
2022-09-23T03:24:44.838Z,4.68
2022-09-23T03:25:21.875Z,3.90
2022-09-23T03:25:58.154Z,4.30
2022-09-23T03:26:34.806Z,5.43
2022-09-23T03:27:13.901Z,5.50
2022-09-23T03:27:45.907Z,4.53
2022-09-23T03:28:21.959Z,5.50
2022-09-23T03:28:54.599Z,5.07
2022-09-23T03:29:27.058Z,5.45
2022-09-23T03:29:59.560Z,5.55
2022-09-23T03:30:35.627Z,5.35
2022-09-23T03:31:08.368Z,4.90
2022-09-23T03:31:42.513Z,4.90
2022-09-23T03:32:17.344Z,4.25
2022-09-23T03:32:51.356Z,5.65
2022-09-23T03:33:28.904Z,5.35
2022-09-23T03:34:06.131Z,3.92
2022-09-23T03:34:41.985Z,4.60
2022-09-23T03:35:14.721Z,5.47
2022-09-23T03:36:11.594Z,4.68
2022-09-23T03:36:53.732Z,4.10
2022-09-23T03:37:37.669Z,4.63
2022-09-23T03:38:16.802Z,5.38
2022-09-23T03:38:52.822Z,4.43
2022-09-23T03:39:33.150Z,3.90
2022-09-23T03:40:15.836Z,5.88
2022-09-23T03:40:51.036Z,5.13
2022-09-23T03:41:39.252Z,5.72
2022-09-23T03:42:17.927Z,4.38
2022-09-23T03:42:50.220Z,5.63
2022-09-23T03:43:22.253Z,5.25
2022-09-23T03:43:57.751Z,5.53
2022-09-23T03:44:30.318Z,6.45
2022-09-23T03:45:09.297Z,5.63
2022-09-23T03:45:42.652Z,4.93
2022-09-23T03:46:18.396Z,5.95
2022-09-23T03:46:50.571Z,5.65
2022-09-23T03:47:26.095Z,4.95
2022-09-23T03:47:58.404Z,5.47
2022-09-23T03:48:30.165Z,6.03
2022-09-23T03:49:35.179Z,5.88
2022-09-23T03:50:07.465Z,4.18
2022-09-23T03:50:39.333Z,5.72
2022-09-23T03:51:21.996Z,5.30
2022-09-23T03:51:55.428Z,5.70
2022-09-23T03:52:27.667Z,3.65
2022-09-23T03:52:59.524Z,5.65
2022-09-23T03:53:31.432Z,5.57
2022-09-23T03:54:03.195Z,5.72
2022-09-23T03:54:35.087Z,5.25
2022-09-23T03:55:08.082Z,5.75
2022-09-23T03:55:40.567Z,4.93
2022-09-23T03:56:12.430Z,5.80
2022-09-23T03:56:44.253Z,4.93
2022-09-23T03:57:16.153Z,6.10
2022-09-23T03:57:48.797Z,5.50
2022-09-23T03:58:20.634Z,5.80
2022-09-23T03:58:52.533Z,5.38
2022-09-23T03:59:26.024Z,3.72
2022-09-23T03:59:57.951Z,4.05
2022-09-23T04:00:29.841Z,5.78
2022-09-23T04:01:01.775Z,6.00
2022-09-23T04:01:33.647Z,5.95
2022-09-23T04:02:07.700Z,5.55
2022-09-23T04:03:12.035Z,3.80
2022-09-23T04:03:44.389Z,5.70
2022-09-23T04:04:16.585Z,3.60
2022-09-23T04:04:48.555Z,4.25
2022-09-23T04:05:20.389Z,5.15
2022-09-23T04:05:52.337Z,5.57
2022-09-23T04:06:24.171Z,5.72
2022-09-23T04:06:56.614Z,5.85
2022-09-23T04:07:28.449Z,5.13
2022-09-23T04:08:00.484Z,5.35
2022-09-23T04:08:32.338Z,5.28
2022-09-23T04:09:04.323Z,5.10
2022-09-23T04:09:36.892Z,5.78
2022-09-23T04:10:10.056Z,5.82
2022-09-23T04:10:42.279Z,5.03
2022-09-23T04:11:14.349Z,5.30
2022-09-23T04:11:47.977Z,4.03
2022-09-23T04:12:19.981Z,5.40
2022-09-23T04:12:52.079Z,6.30
2022-09-23T04:13:24.011Z,5.70
2022-09-23T04:13:56.762Z,4.65
2022-09-23T04:14:28.652Z,6.10
2022-09-23T04:15:00.511Z,5.53
2022-09-23T04:15:32.336Z,4.50
2022-09-23T04:16:04.388Z,6.15
2022-09-23T04:16:36.387Z,5.75
2022-09-23T04:17:08.421Z,5.60
2022-09-23T04:17:40.242Z,5.95
2022-09-23T04:18:12.026Z,5.70
2022-09-23T04:18:43.825Z,6.15
2022-09-23T04:19:16.333Z,5.70
2022-09-23T04:19:48.161Z,6.22
2022-09-23T04:20:20.666Z,5.78
2022-09-23T04:20:57.697Z,6.18
2022-09-23T04:21:31.071Z,5.55
2022-09-23T04:22:03.775Z,6.32
2022-09-23T04:22:37.715Z,4.15
2022-09-23T04:23:09.728Z,5.55
2022-09-23T04:23:41.723Z,6.07
2022-09-23T04:24:14.691Z,5.82
2022-09-23T04:24:46.592Z,6.03
2022-09-23T04:25:18.474Z,4.45
2022-09-23T04:25:50.400Z,6.13
2022-09-23T04:26:22.316Z,5.85
2022-09-23T04:26:55.407Z,6.20
2022-09-23T04:27:27.224Z,6.55
2022-09-23T04:27:59.021Z,6.50
2022-09-23T04:28:30.932Z,6.78
2022-09-23T04:29:04.929Z,6.10
2022-09-23T04:29:36.859Z,5.35
2022-09-23T04:30:09.160Z,6.00
2022-09-23T04:30:43.750Z,4.93
2022-09-23T04:31:15.617Z,6.82
2022-09-23T04:31:48.641Z,6.45
2022-09-23T04:32:20.572Z,6.35
2022-09-23T04:32:53.439Z,4.80
2022-09-23T04:33:25.836Z,5.97
2022-09-23T04:33:58.155Z,6.85
2022-09-23T04:34:30.006Z,4.82
2022-09-23T04:35:01.909Z,5.88
2022-09-23T04:35:36.696Z,5.85
2022-09-23T04:36:11.846Z,6.63
2022-09-23T04:36:45.298Z,6.97
2022-09-23T04:37:17.145Z,5.28
2022-09-23T04:37:49.146Z,6.38
2022-09-23T04:38:22.000Z,5.38
2022-09-23T04:38:53.857Z,7.00
2022-09-23T04:39:25.708Z,4.97
2022-09-23T04:39:57.621Z,6.65
2022-09-23T04:40:29.520Z,6.78
2022-09-23T04:41:01.528Z,5.63
2022-09-23T04:41:33.452Z,6.05
2022-09-23T04:42:05.448Z,5.20
2022-09-23T04:42:37.276Z,5.78
2022-09-23T04:43:12.942Z,6.22
2022-09-23T04:43:46.105Z,4.20
2022-09-23T04:44:18.825Z,6.43
2022-09-23T04:44:50.636Z,5.75
2022-09-23T04:45:22.600Z,6.03
2022-09-23T04:46:02.144Z,4.32
2022-09-23T04:46:34.655Z,6.50
2022-09-23T04:47:06.622Z,5.88
2022-09-23T04:47:38.558Z,6.03
2022-09-23T04:48:12.092Z,6.20
2022-09-23T04:48:44.539Z,6.15
2022-09-23T04:49:16.625Z,4.65
2022-09-23T04:49:48.681Z,6.55
2022-09-23T04:50:20.695Z,6.55
2022-09-23T04:50:52.736Z,5.88
2022-09-23T04:51:26.564Z,4.93
2022-09-23T04:51:58.464Z,5.97
2022-09-23T04:52:31.299Z,5.32
2022-09-23T04:53:04.550Z,4.88
2022-09-23T04:53:38.595Z,6.50
2022-09-23T04:54:12.665Z,6.00
2022-09-23T04:54:44.430Z,5.90
2022-09-23T04:55:16.352Z,6.18
2022-09-23T04:55:48.214Z,6.75
2022-09-23T04:56:26.244Z,5.28
2022-09-23T04:56:58.043Z,6.15
2022-09-23T04:57:29.927Z,4.15
2022-09-23T04:58:01.688Z,4.38
2022-09-23T04:58:34.519Z,6.32
2022-09-23T04:59:07.048Z,5.95
2022-09-23T04:59:39.136Z,5.63
2022-09-23T05:00:12.465Z,6.30
2022-09-23T05:00:44.760Z,5.60
2022-09-23T05:01:28.060Z,4.47
2022-09-23T05:01:59.923Z,6.10
2022-09-23T05:02:32.105Z,5.97
2022-09-23T05:03:04.162Z,4.05
2022-09-23T05:03:36.323Z,4.85
2022-09-23T05:04:13.530Z,6.43
2022-09-23T05:04:45.311Z,6.50
2022-09-23T05:05:23.299Z,6.78
2022-09-23T05:05:59.863Z,6.28
2022-09-23T05:06:34.542Z,6.07
2022-09-23T05:07:06.590Z,4.20
2022-09-23T05:07:38.912Z,4.65
2022-09-23T05:08:10.696Z,6.50
2022-09-23T05:08:54.560Z,6.18
2022-09-23T05:09:26.516Z,4.82
2022-09-23T05:09:58.300Z,6.10
2022-09-23T05:10:30.115Z,6.60
2022-09-23T05:11:04.968Z,4.90
2022-09-23T05:11:36.751Z,5.88
2022-09-23T05:12:08.651Z,6.32
2022-09-23T05:12:40.500Z,6.35
2022-09-23T05:13:12.357Z,6.68
2022-09-23T05:13:46.413Z,5.20
2022-09-23T05:14:18.587Z,7.18
2022-09-23T05:14:50.640Z,6.43
2022-09-23T05:15:22.406Z,7.70
2022-09-23T05:16:01.247Z,5.22
2022-09-23T05:16:33.263Z,6.35
2022-09-23T05:17:06.045Z,6.70
2022-09-23T05:17:37.951Z,7.05
2022-09-23T05:18:09.859Z,7.07
2022-09-23T05:18:43.882Z,7.38
2022-09-23T05:19:15.657Z,6.63
2022-09-23T05:19:47.506Z,7.07
2022-09-23T05:20:19.260Z,7.22
2022-09-23T05:20:55.652Z,6.88
2022-09-23T05:21:32.212Z,6.15
2022-09-23T05:22:05.312Z,6.90
2022-09-23T05:22:37.747Z,4.60
2022-09-23T05:23:09.609Z,6.57
2022-09-23T05:23:42.619Z,5.40
2022-09-23T05:24:15.441Z,7.60
2022-09-23T05:24:47.232Z,6.97
2022-09-23T05:25:19.033Z,7.30
2022-09-23T05:26:02.040Z,5.88
2022-09-23T05:26:33.839Z,7.20
2022-09-23T05:27:07.784Z,7.65
2022-09-23T05:27:39.638Z,7.40
2022-09-23T05:28:11.526Z,5.60
2022-09-23T05:28:43.639Z,5.32
2022-09-23T05:29:15.445Z,7.07
2022-09-23T05:29:47.628Z,7.47
2022-09-23T05:30:19.647Z,7.55
2022-09-23T05:30:51.596Z,7.72
2022-09-23T05:31:25.958Z,6.65
2022-09-23T05:31:57.907Z,7.63
2022-09-23T05:32:29.878Z,5.75
2022-09-23T05:33:02.742Z,7.50
2022-09-23T05:33:36.335Z,7.90
2022-09-23T05:34:08.278Z,7.35
2022-09-23T05:34:40.189Z,6.97
2022-09-23T05:35:50.809Z,5.93
2022-09-23T05:36:23.729Z,4.38
2022-09-23T05:36:55.575Z,5.05
2022-09-23T05:37:27.348Z,7.18
2022-09-23T05:37:59.168Z,6.70
2022-09-23T05:38:31.945Z,5.22
2022-09-23T05:39:04.189Z,7.40
2022-09-23T05:39:36.713Z,6.28
2022-09-23T05:40:08.942Z,6.85
2022-09-23T05:40:40.799Z,7.95
2022-09-23T05:41:13.693Z,5.38
2022-09-23T05:41:45.844Z,6.95
2022-09-23T05:42:18.236Z,6.10
2022-09-23T05:42:52.428Z,6.65
2022-09-23T05:43:24.839Z,6.88
2022-09-23T05:43:57.250Z,6.55
2022-09-23T05:44:29.040Z,6.32
2022-09-23T05:45:00.922Z,6.82
2022-09-23T05:45:33.216Z,7.03
2022-09-23T05:46:19.634Z,7.53
2022-09-23T05:46:51.677Z,6.80
2022-09-23T05:47:23.509Z,7.07
2022-09-23T05:47:55.367Z,7.60
2022-09-23T05:48:27.154Z,7.10
2022-09-23T05:49:02.890Z,6.85
2022-09-23T05:49:57.982Z,6.32
2022-09-23T05:50:28.354Z,7.38
2022-09-23T05:51:00.675Z,6.47
2022-09-23T05:51:34.727Z,7.10
2022-09-23T05:52:06.573Z,5.75
2022-09-23T05:52:38.301Z,6.50
2022-09-23T05:53:10.120Z,5.75
2022-09-23T05:53:45.419Z,6.85
2022-09-23T05:54:17.206Z,6.82
2022-09-23T05:54:49.893Z,7.15
2022-09-23T05:55:21.700Z,6.97
2022-09-23T05:55:54.543Z,7.22
2022-09-23T05:56:28.247Z,6.38
2022-09-23T05:57:02.693Z,4.80
2022-09-23T05:57:36.699Z,7.60
2022-09-23T05:58:08.578Z,7.68
2022-09-23T05:58:40.628Z,8.05
2022-09-23T05:59:12.602Z,7.85
2022-09-23T05:59:47.645Z,7.30
2022-09-23T06:00:19.410Z,7.70
2022-09-23T06:00:52.108Z,8.02
2022-09-23T06:01:27.229Z,7.95
2022-09-23T06:01:59.866Z,5.72
2022-09-23T06:02:31.711Z,7.63
2022-09-23T06:03:05.038Z,7.63
2022-09-23T06:03:37.040Z,7.70
2022-09-23T06:04:12.715Z,8.23
2022-09-23T06:04:44.589Z,7.97
2022-09-23T06:05:16.418Z,8.18
2022-09-23T06:05:48.478Z,7.75
2022-09-23T06:06:24.736Z,7.30
2022-09-23T06:07:00.274Z,5.88
2022-09-23T06:07:34.699Z,6.00
2022-09-23T06:08:07.376Z,6.40
2022-09-23T06:08:39.627Z,7.00
2022-09-23T06:09:13.942Z,6.43
2022-09-23T06:09:45.855Z,6.35
2022-09-23T06:10:17.663Z,6.95
2022-09-23T06:10:54.456Z,6.47
2022-09-23T06:11:29.830Z,6.00
2022-09-23T06:12:01.953Z,6.20
2022-09-23T06:12:35.251Z,6.43
2022-09-23T06:13:07.367Z,6.63
2022-09-23T06:13:39.964Z,6.80
2022-09-23T06:14:14.695Z,6.82
2022-09-23T06:14:46.645Z,6.72
2022-09-23T06:15:18.715Z,6.75
2022-09-23T06:15:50.631Z,6.15
2022-09-23T06:16:22.618Z,6.32
2022-09-23T06:16:54.505Z,6.32
2022-09-23T06:17:26.280Z,6.13
2022-09-23T06:17:58.635Z,6.50
2022-09-23T06:18:30.415Z,7.55
2022-09-23T06:19:06.588Z,6.78
2022-09-23T06:19:38.733Z,6.85
2022-09-23T06:20:10.798Z,6.57
2022-09-23T06:20:42.654Z,6.25
2022-09-23T06:21:16.437Z,6.43
2022-09-23T06:21:49.726Z,6.90
2022-09-23T06:22:24.847Z,7.05
2022-09-23T06:23:09.954Z,6.90
2022-09-23T06:23:43.837Z,7.28
2022-09-23T06:24:19.120Z,6.53
2022-09-23T06:24:53.203Z,6.38
2022-09-23T06:25:25.035Z,6.70
2022-09-23T06:26:16.424Z,6.35
2022-09-23T06:26:48.372Z,6.10
2022-09-23T06:27:20.226Z,6.20
2022-09-23T06:27:55.966Z,6.53
2022-09-23T06:28:32.977Z,6.55
2022-09-23T06:29:12.049Z,6.28
2022-09-23T06:29:43.936Z,6.65
2022-09-23T06:30:17.308Z,5.80
2022-09-23T06:30:49.912Z,6.97
2022-09-23T06:31:21.686Z,6.68
2022-09-23T06:31:53.657Z,6.70
2022-09-23T06:32:25.877Z,6.95
2022-09-23T06:32:58.243Z,6.72
2022-09-23T06:33:36.721Z,6.80
2022-09-23T06:34:14.485Z,6.40
2022-09-23T06:34:51.690Z,6.70
2022-09-23T06:35:27.803Z,6.55
2022-09-23T06:36:01.063Z,6.45
2022-09-23T06:36:42.705Z,6.35
2022-09-23T06:37:20.300Z,6.80
2022-09-23T06:37:53.726Z,7.20
2022-09-23T06:38:26.961Z,6.72
2022-09-23T06:38:58.820Z,6.95
2022-09-23T06:39:31.033Z,6.90
2022-09-23T06:40:02.921Z,6.78
2022-09-23T06:40:35.500Z,7.20
2022-09-23T06:41:07.588Z,6.50
2022-09-23T06:42:06.325Z,6.47
2022-09-23T06:42:38.325Z,7.28
2022-09-23T06:43:10.138Z,6.78
2022-09-23T06:43:42.020Z,6.70
2022-09-23T06:44:14.922Z,6.63
2022-09-23T06:44:46.678Z,7.15
2022-09-23T06:45:18.442Z,6.80
2022-09-23T06:45:55.987Z,6.68
2022-09-23T06:46:27.942Z,6.25
2022-09-23T06:46:59.757Z,7.43
2022-09-23T06:47:31.520Z,6.05
2022-09-23T06:48:08.345Z,6.38
2022-09-23T06:48:45.399Z,7.22
2022-09-23T06:49:18.249Z,6.55
2022-09-23T06:49:51.608Z,6.60
2022-09-23T06:50:25.751Z,6.43
2022-09-23T06:51:05.212Z,6.40
2022-09-23T06:51:36.925Z,6.45
2022-09-23T06:52:09.074Z,6.30
2022-09-23T06:52:41.087Z,7.03
2022-09-23T06:53:12.830Z,6.18
2022-09-23T06:53:46.198Z,6.85
2022-09-23T06:54:18.092Z,6.45
2022-09-23T06:54:49.980Z,6.72
2022-09-23T06:55:27.909Z,6.45
2022-09-23T06:56:05.864Z,6.63
2022-09-23T06:56:39.721Z,6.53
2022-09-23T06:57:11.828Z,7.20
2022-09-23T06:57:44.623Z,6.10
2022-09-23T06:58:16.456Z,7.22
2022-09-23T06:58:48.763Z,7.15
2022-09-23T06:59:20.509Z,7.15
2022-09-23T06:59:52.182Z,7.00
2022-09-23T07:00:25.780Z,6.95
2022-09-23T07:01:09.322Z,6.90
2022-09-23T07:01:41.675Z,7.03
2022-09-23T07:02:14.178Z,6.95
2022-09-23T07:02:46.510Z,7.20
2022-09-23T07:03:18.460Z,6.82
2022-09-23T07:03:50.195Z,7.47
2022-09-23T07:04:24.114Z,6.43
2022-09-23T07:04:59.102Z,7.03
2022-09-23T07:05:30.868Z,6.95
2022-09-23T07:06:03.230Z,7.10
2022-09-23T07:06:35.256Z,7.18
2022-09-23T07:07:06.983Z,6.82
2022-09-23T07:07:39.388Z,6.45
2022-09-23T07:08:11.143Z,7.20
2022-09-23T07:08:44.965Z,6.97
2022-09-23T07:09:16.819Z,7.80
2022-09-23T07:09:48.768Z,7.30
2022-09-23T07:10:20.457Z,6.97
2022-09-23T07:10:59.545Z,7.00
2022-09-23T07:11:31.248Z,7.05
2022-09-23T07:12:03.269Z,6.45
2022-09-23T07:12:35.092Z,7.53
2022-09-23T07:13:06.862Z,6.72
2022-09-23T07:13:40.933Z,7.07
2022-09-23T07:14:14.012Z,7.45
2022-09-23T07:14:46.035Z,7.35
2022-09-23T07:15:17.789Z,7.60
2022-09-23T07:15:54.142Z,6.75
2022-09-23T07:16:26.082Z,7.15
2022-09-23T07:16:59.892Z,6.60
2022-09-23T07:17:31.719Z,6.82
2022-09-23T07:18:03.478Z,7.10
2022-09-23T07:18:37.335Z,6.65
2022-09-23T07:19:09.316Z,7.28
2022-09-23T07:19:41.130Z,6.70
2022-09-23T07:20:12.996Z,6.25
2022-09-23T07:20:45.880Z,7.28
2022-09-23T07:21:18.999Z,6.63
2022-09-23T07:21:50.773Z,6.55
2022-09-23T07:22:24.756Z,7.18
2022-09-23T07:22:56.897Z,6.07
2022-09-23T07:23:28.856Z,6.57
2022-09-23T07:24:00.708Z,6.05
2022-09-23T07:24:33.688Z,6.30
2022-09-23T07:25:06.195Z,6.78
2022-09-23T07:25:38.132Z,6.80
2022-09-23T07:26:09.937Z,6.43
2022-09-23T07:26:45.592Z,6.18
2022-09-23T07:27:20.035Z,6.10
2022-09-23T07:27:51.842Z,5.57
2022-09-23T07:28:24.041Z,5.63
2022-09-23T07:28:57.011Z,5.55
2022-09-23T07:29:31.737Z,6.03
2022-09-23T07:30:04.991Z,5.95
2022-09-23T07:30:49.758Z,4.82
2022-09-23T07:31:36.519Z,5.72
2022-09-23T07:32:14.227Z,5.70
2022-09-23T07:32:49.193Z,6.10
2022-09-23T07:33:31.579Z,5.75
2022-09-23T07:34:04.236Z,6.03
2022-09-23T07:34:36.437Z,5.68
2022-09-23T07:35:10.732Z,5.68
2022-09-23T07:35:42.994Z,5.32
2022-09-23T07:36:17.426Z,5.18
2022-09-23T07:36:49.279Z,5.30
2022-09-23T07:37:21.025Z,5.60
2022-09-23T07:37:52.827Z,5.60
2022-09-23T07:38:30.385Z,6.10
2022-09-23T07:39:03.667Z,6.03
2022-09-23T07:39:36.687Z,6.57
2022-09-23T07:40:09.498Z,6.05
2022-09-23T07:40:41.506Z,5.53
2022-09-23T07:41:17.741Z,5.30
2022-09-23T07:41:49.797Z,5.30
2022-09-23T07:42:21.824Z,5.65
2022-09-23T07:42:53.673Z,5.57
2022-09-23T07:43:29.994Z,6.40
2022-09-23T07:44:02.997Z,5.63
2022-09-23T07:44:34.971Z,6.10
2022-09-23T07:45:09.065Z,4.95
2022-09-23T07:45:43.538Z,5.90
2022-09-23T07:46:17.673Z,6.45
2022-09-23T07:46:49.858Z,5.43
2022-09-23T07:47:21.685Z,5.90
2022-09-23T07:47:55.417Z,6.05
2022-09-23T07:48:31.927Z,6.00
2022-09-23T07:49:06.073Z,5.40
2022-09-23T07:49:38.420Z,5.60
2022-09-23T07:50:13.342Z,5.53
2022-09-23T07:50:45.179Z,5.93
2022-09-23T07:51:20.269Z,5.70
2022-09-23T07:51:52.868Z,5.93
2022-09-23T07:52:24.725Z,5.50
2022-09-23T07:52:56.583Z,5.10
2022-09-23T07:53:28.595Z,5.45
2022-09-23T07:54:00.401Z,5.85
2022-09-23T07:54:32.666Z,5.28
2022-09-23T07:55:06.908Z,4.68
2022-09-23T07:55:38.619Z,5.25
2022-09-23T07:56:11.490Z,4.90
2022-09-23T07:56:44.174Z,5.53
2022-09-23T07:57:16.286Z,4.85
2022-09-23T07:57:48.329Z,5.05
2022-09-23T07:58:20.298Z,5.10
2022-09-23T07:59:02.190Z,4.68
2022-09-23T07:59:34.616Z,5.35
2022-09-23T08:00:07.207Z,4.60
2022-09-23T08:00:43.605Z,4.45
2022-09-23T08:01:15.517Z,5.13
2022-09-23T08:01:50.842Z,5.03
2022-09-23T08:02:22.952Z,5.00
2022-09-23T08:02:54.754Z,5.40
2022-09-23T08:03:27.451Z,4.80
2022-09-23T08:04:09.197Z,4.80
2022-09-23T08:04:41.204Z,4.85
2022-09-23T08:05:13.642Z,4.60